createdAt,value
2018-07-06T00:01:14.482Z,17.00
2018-07-06T00:03:55.110Z,16.70
2018-07-06T00:06:35.519Z,17.00
2018-07-06T00:09:15.830Z,17.00
2018-07-06T00:11:56.326Z,17.10
2018-07-06T00:14:36.443Z,17.10
2018-07-06T00:17:16.843Z,17.10
2018-07-06T00:19:57.274Z,17.10
2018-07-06T00:22:37.768Z,17.10
2018-07-06T00:25:17.946Z,17.10
2018-07-06T00:27:58.539Z,17.10
2018-07-06T00:30:38.888Z,17.00
2018-07-06T00:33:19.398Z,17.10
2018-07-06T00:35:59.691Z,17.10
2018-07-06T00:38:40.098Z,17.10
2018-07-06T00:41:20.644Z,17.00
2018-07-06T00:44:01.179Z,17.00
2018-07-06T00:46:41.602Z,16.90
2018-07-06T00:49:22.129Z,16.90
2018-07-06T00:52:02.454Z,16.90
2018-07-06T00:54:43.003Z,16.90
2018-07-06T00:57:23.160Z,16.80
2018-07-06T01:00:03.719Z,16.80
2018-07-06T01:02:44.019Z,16.80
2018-07-06T01:05:24.458Z,16.80
2018-07-06T01:08:04.786Z,16.70
2018-07-06T01:10:45.304Z,16.70
2018-07-06T01:13:25.603Z,16.80
2018-07-06T01:16:05.888Z,16.70
2018-07-06T01:18:46.466Z,16.60
2018-07-06T01:24:01.355Z,16.60
2018-07-06T01:26:41.848Z,16.60
2018-07-06T01:29:22.376Z,16.50
2018-07-06T01:32:02.597Z,16.30
2018-07-06T01:34:43.195Z,16.40
2018-07-06T01:37:23.526Z,16.40
2018-07-06T01:40:04.139Z,16.40
2018-07-06T01:42:44.515Z,16.40
2018-07-06T01:45:24.931Z,16.50
2018-07-06T01:48:05.388Z,16.50
2018-07-06T01:50:45.828Z,16.40
2018-07-06T01:53:26.232Z,16.10
2018-07-06T01:56:06.809Z,16.10
2018-07-06T01:58:47.367Z,16.20
2018-07-06T02:01:27.654Z,16.00
2018-07-06T02:06:42.432Z,15.90
2018-07-06T02:09:22.824Z,16.00
2018-07-06T02:12:03.282Z,16.10
2018-07-06T02:14:43.787Z,16.10
2018-07-06T02:17:24.263Z,16.10
2018-07-06T02:20:04.826Z,16.20
2018-07-06T02:22:45.264Z,16.10
2018-07-06T02:25:25.689Z,16.10
2018-07-06T02:28:06.154Z,16.20
2018-07-06T02:30:46.571Z,16.20
2018-07-06T02:33:26.953Z,16.20
2018-07-06T02:36:07.557Z,16.10
2018-07-06T02:38:48.006Z,16.10
2018-07-06T02:41:28.580Z,16.20
2018-07-06T02:44:08.956Z,16.20
2018-07-06T02:46:49.450Z,16.20
2018-07-06T02:49:30.061Z,16.20
2018-07-06T02:52:10.612Z,16.20
2018-07-06T02:54:50.948Z,16.20
2018-07-06T02:57:31.398Z,16.00
2018-07-06T03:00:11.770Z,15.90
2018-07-06T03:02:52.183Z,15.90
2018-07-06T03:05:32.464Z,16.10
2018-07-06T03:08:12.990Z,16.10
2018-07-06T03:10:53.543Z,16.00
2018-07-06T03:13:34.061Z,16.10
2018-07-06T03:16:14.463Z,16.20
2018-07-06T03:18:54.882Z,16.30
2018-07-06T03:21:35.275Z,16.10
2018-07-06T03:24:15.790Z,16.30
2018-07-06T03:26:56.308Z,16.30
2018-07-06T03:29:36.762Z,16.30
2018-07-06T03:32:17.120Z,16.30
2018-07-06T03:34:57.568Z,16.40
2018-07-06T03:37:38.090Z,16.20
2018-07-06T03:40:18.515Z,16.10
2018-07-06T03:42:58.726Z,15.90
2018-07-06T03:45:39.163Z,15.90
2018-07-06T03:48:19.581Z,15.80
2018-07-06T03:51:00.034Z,16.10
2018-07-06T03:53:40.595Z,16.30
2018-07-06T03:56:20.999Z,16.40
2018-07-06T03:59:01.419Z,16.40
2018-07-06T04:01:41.802Z,16.40
2018-07-06T04:04:22.254Z,16.20
2018-07-06T04:07:02.768Z,16.20
2018-07-06T04:09:43.179Z,16.40
2018-07-06T04:12:23.484Z,16.30
2018-07-06T04:15:03.986Z,16.50
2018-07-06T04:17:44.483Z,16.50
2018-07-06T04:20:24.789Z,16.50
2018-07-06T04:23:05.221Z,16.40
2018-07-06T04:25:45.822Z,16.60
2018-07-06T04:28:26.407Z,16.60
2018-07-06T04:31:06.799Z,16.60
2018-07-06T04:33:47.311Z,16.70
2018-07-06T04:36:27.648Z,16.60
2018-07-06T04:39:08.145Z,16.70
2018-07-06T04:41:48.483Z,16.70
2018-07-06T04:44:28.999Z,16.70
2018-07-06T04:47:09.425Z,16.80
2018-07-06T04:49:49.940Z,16.80
2018-07-06T04:52:30.244Z,16.80
2018-07-06T04:55:10.754Z,16.90
2018-07-06T04:57:51.145Z,17.00
2018-07-06T05:00:31.707Z,17.10
2018-07-06T05:03:12.191Z,17.20
2018-07-06T05:05:52.756Z,17.20
2018-07-06T05:08:33.053Z,17.30
2018-07-06T05:11:13.452Z,17.30
2018-07-06T05:13:53.895Z,17.30
2018-07-06T05:16:34.386Z,17.40
2018-07-06T05:19:14.902Z,17.40
2018-07-06T05:21:55.472Z,17.40
2018-07-06T05:24:35.949Z,17.50
2018-07-06T05:27:16.508Z,17.50
2018-07-06T05:29:57.023Z,17.50
2018-07-06T05:32:37.533Z,17.50
2018-07-06T05:35:18.031Z,17.50
2018-07-06T05:37:58.531Z,17.60
2018-07-06T05:40:39.002Z,17.60
2018-07-06T05:43:19.471Z,17.60
2018-07-06T05:45:59.958Z,17.60
2018-07-06T05:48:40.401Z,17.60
2018-07-06T05:51:20.823Z,17.60
2018-07-06T05:54:01.315Z,17.60
2018-07-06T05:56:41.707Z,17.60
2018-07-06T05:59:22.312Z,17.70
2018-07-06T06:02:02.776Z,17.70
2018-07-06T06:04:43.172Z,17.70
2018-07-06T06:07:20.142Z,17.70
2018-07-06T06:09:49.235Z,17.70
2018-07-06T06:12:18.500Z,17.70
2018-07-06T06:14:47.542Z,17.70
2018-07-06T06:17:16.645Z,17.60
2018-07-06T06:19:45.912Z,17.60
2018-07-06T06:22:15.007Z,17.60
2018-07-06T06:24:44.103Z,17.60
2018-07-06T06:27:13.194Z,17.60
2018-07-06T06:29:43.294Z,17.60
2018-07-06T06:32:12.499Z,17.60
2018-07-06T06:34:41.602Z,17.60
2018-07-06T06:37:10.727Z,17.60
2018-07-06T06:39:40.071Z,17.60
2018-07-06T06:42:09.194Z,17.60
2018-07-06T06:44:38.432Z,17.60
2018-07-06T06:47:08.337Z,17.60
2018-07-06T06:49:37.542Z,17.60
2018-07-06T06:52:06.688Z,17.50
2018-07-06T06:54:35.911Z,17.60
2018-07-06T06:57:05.087Z,17.60
2018-07-06T06:59:34.353Z,17.70
2018-07-06T07:04:32.319Z,17.60
2018-07-06T07:07:01.679Z,17.60
2018-07-06T07:09:30.832Z,17.60
2018-07-06T07:12:00.010Z,17.60
2018-07-06T07:14:29.189Z,17.70
2018-07-06T07:16:58.759Z,17.70
2018-07-06T07:19:28.021Z,17.60
2018-07-06T07:24:25.942Z,17.70
2018-07-06T07:26:55.378Z,17.60
2018-07-06T07:29:24.604Z,17.70
2018-07-06T07:31:53.806Z,17.70
2018-07-06T07:34:22.952Z,17.70
2018-07-06T07:36:52.110Z,17.60
2018-07-06T07:39:21.377Z,17.70
2018-07-06T07:41:50.562Z,17.70
2018-07-06T07:44:19.730Z,17.70
2018-07-06T07:46:48.860Z,17.70
2018-07-06T07:49:17.982Z,17.70
2018-07-06T07:52:02.878Z,17.70
2018-07-06T07:54:42.563Z,17.70
2018-07-06T07:57:11.750Z,17.70
2018-07-06T07:59:41.730Z,17.70
2018-07-06T08:02:10.806Z,17.70
2018-07-06T08:04:40.240Z,17.80
2018-07-06T08:07:09.335Z,17.70
2018-07-06T08:09:38.520Z,17.80
2018-07-06T08:12:07.658Z,17.80
2018-07-06T08:14:37.079Z,17.90
2018-07-06T08:17:06.294Z,18.00
2018-07-06T08:19:35.424Z,18.00
2018-07-06T08:22:04.538Z,18.00
2018-07-06T08:24:33.623Z,18.00
2018-07-06T08:27:02.714Z,18.00
2018-07-06T08:29:31.847Z,18.10
2018-07-06T08:32:00.949Z,18.10
2018-07-06T08:34:41.243Z,18.20
2018-07-06T08:38:21.436Z,18.30
2018-07-06T08:40:50.531Z,18.50
2018-07-06T08:43:19.598Z,18.40
2018-07-06T08:45:48.674Z,18.50
2018-07-06T08:48:17.758Z,18.50
2018-07-06T08:50:46.871Z,18.50
2018-07-06T08:53:16.451Z,18.50
2018-07-06T08:55:45.635Z,18.50
2018-07-06T08:58:14.748Z,18.70
2018-07-06T09:00:43.896Z,18.80
2018-07-06T09:03:12.986Z,18.70
2018-07-06T09:05:42.103Z,18.60
2018-07-06T09:08:11.209Z,18.60
2018-07-06T09:10:40.418Z,18.50
2018-07-06T09:13:09.540Z,18.50
2018-07-06T09:15:38.654Z,18.60
2018-07-06T09:18:07.775Z,18.50
2018-07-06T09:20:36.904Z,18.50
2018-07-06T09:23:06.018Z,18.50
2018-07-06T09:25:35.240Z,18.50
2018-07-06T09:28:04.271Z,18.50
2018-07-06T09:30:33.508Z,18.40
2018-07-06T09:33:02.518Z,18.50
2018-07-06T09:35:31.686Z,18.50
2018-07-06T09:38:00.835Z,18.50
2018-07-06T09:40:29.972Z,18.60
2018-07-06T09:42:59.060Z,18.60
2018-07-06T09:45:28.167Z,18.80
2018-07-06T09:47:57.383Z,19.00
2018-07-06T09:50:26.618Z,19.20
2018-07-06T09:52:55.797Z,19.20
2018-07-06T09:55:24.900Z,19.20
2018-07-06T09:57:53.982Z,19.20
2018-07-06T10:00:28.763Z,19.30
2018-07-06T10:02:57.846Z,19.30
2018-07-06T10:05:26.955Z,19.40
2018-07-06T10:07:56.076Z,19.50
2018-07-06T10:10:25.130Z,19.60
2018-07-06T10:12:54.228Z,19.70
2018-07-06T10:15:23.286Z,19.70
2018-07-06T10:17:52.395Z,19.60
2018-07-06T10:20:21.534Z,19.70
2018-07-06T10:22:50.621Z,19.80
2018-07-06T10:25:19.687Z,20.00
2018-07-06T10:27:56.283Z,20.10
2018-07-06T10:30:40.232Z,20.20
2018-07-06T10:33:09.595Z,20.20
2018-07-06T10:35:38.648Z,20.30
2018-07-06T10:38:07.776Z,20.20
2018-07-06T10:40:36.954Z,20.20
2018-07-06T10:43:06.133Z,20.20
2018-07-06T10:45:35.226Z,20.00
2018-07-06T10:48:04.694Z,19.90
2018-07-06T10:50:33.824Z,19.80
2018-07-06T10:53:02.920Z,19.70
2018-07-06T10:55:32.071Z,19.50
2018-07-06T10:58:01.251Z,19.50
2018-07-06T11:00:30.432Z,19.40
2018-07-06T11:02:59.571Z,19.30
2018-07-06T11:05:28.835Z,19.30
2018-07-06T11:07:57.983Z,19.30
2018-07-06T11:10:27.173Z,19.20
2018-07-06T11:12:56.284Z,19.10
2018-07-06T11:15:25.403Z,19.10
2018-07-06T11:17:54.534Z,19.00
2018-07-06T11:20:23.653Z,18.90
2018-07-06T11:22:52.787Z,18.80
2018-07-06T11:25:21.928Z,18.90
2018-07-06T11:27:50.999Z,18.90
2018-07-06T11:30:20.229Z,18.90
2018-07-06T11:32:49.328Z,18.90
2018-07-06T11:35:18.519Z,18.90
2018-07-06T11:37:47.636Z,18.90
2018-07-06T11:40:16.837Z,19.00
2018-07-06T11:42:45.982Z,19.10
2018-07-06T11:45:15.170Z,19.00
2018-07-06T11:47:44.218Z,19.00
2018-07-06T11:50:13.438Z,19.20
2018-07-06T11:52:42.562Z,19.10
2018-07-06T11:55:11.707Z,19.30
2018-07-06T11:57:40.858Z,19.40
2018-07-06T12:00:10.012Z,19.50
2018-07-06T12:02:39.122Z,19.70
2018-07-06T12:05:08.696Z,19.70
2018-07-06T12:07:37.847Z,19.70
2018-07-06T12:10:07.203Z,19.70
2018-07-06T12:12:36.309Z,19.70
2018-07-06T12:15:05.527Z,19.60
2018-07-06T12:17:34.615Z,19.70
2018-07-06T12:20:04.072Z,19.90
2018-07-06T12:22:33.190Z,20.00
2018-07-06T12:25:02.311Z,20.20
2018-07-06T12:27:31.436Z,20.40
2018-07-06T12:30:00.542Z,20.60
2018-07-06T12:32:29.629Z,20.80
2018-07-06T12:34:58.826Z,21.20
2018-07-06T12:37:27.934Z,21.30
2018-07-06T12:39:57.106Z,21.40
2018-07-06T12:42:26.195Z,21.50
2018-07-06T12:44:55.343Z,21.50
2018-07-06T12:47:24.464Z,21.60
2018-07-06T12:49:53.684Z,21.70
2018-07-06T12:52:22.806Z,21.70
2018-07-06T12:54:51.971Z,21.60
2018-07-06T12:57:21.115Z,21.50
2018-07-06T12:59:50.356Z,21.30
2018-07-06T13:02:19.509Z,21.10
2018-07-06T13:04:48.856Z,21.00
2018-07-06T13:07:17.958Z,21.00
2018-07-06T13:09:47.071Z,20.90
2018-07-06T13:12:16.194Z,20.90
2018-07-06T13:14:45.290Z,20.80
2018-07-06T13:17:14.419Z,20.80
2018-07-06T13:19:43.945Z,20.60
2018-07-06T13:22:13.343Z,20.60
2018-07-06T13:24:42.490Z,20.50
2018-07-06T13:27:11.655Z,20.40
2018-07-06T13:29:40.976Z,20.30
2018-07-06T13:32:10.159Z,20.30
2018-07-06T13:34:39.278Z,20.30
2018-07-06T13:37:08.389Z,20.30
2018-07-06T13:39:37.647Z,20.30
2018-07-06T13:42:06.816Z,20.30
2018-07-06T13:44:35.912Z,20.30
2018-07-06T13:47:05.469Z,20.50
2018-07-06T13:49:34.565Z,20.60
2018-07-06T13:52:04.552Z,20.60
2018-07-06T13:54:33.802Z,20.60
2018-07-06T13:57:02.938Z,20.60
2018-07-06T13:59:32.934Z,20.60
2018-07-06T14:02:02.060Z,20.60
2018-07-06T14:04:31.153Z,20.70
2018-07-06T14:07:00.279Z,20.90
2018-07-06T14:09:29.456Z,20.80
2018-07-06T14:11:58.584Z,20.90
2018-07-06T14:14:27.662Z,21.00
2018-07-06T14:16:56.822Z,21.30
2018-07-06T14:19:25.959Z,21.60
2018-07-06T14:21:55.179Z,21.60
2018-07-06T14:24:24.372Z,21.50
2018-07-06T14:26:53.463Z,21.60
2018-07-06T14:29:22.692Z,21.60
2018-07-06T14:31:51.775Z,21.60
2018-07-06T14:34:20.923Z,21.60
2018-07-06T14:36:50.022Z,21.70
2018-07-06T14:39:19.273Z,22.00
2018-07-06T14:41:48.372Z,22.20
2018-07-06T14:44:17.485Z,22.30
2018-07-06T14:46:46.581Z,22.30
2018-07-06T14:49:15.708Z,22.20
2018-07-06T14:51:44.810Z,22.10
2018-07-06T14:54:13.964Z,21.90
2018-07-06T14:56:43.060Z,21.60
2018-07-06T14:59:12.483Z,21.40
2018-07-06T15:01:41.610Z,21.40
2018-07-06T15:04:10.756Z,21.30
2018-07-06T15:06:39.900Z,21.20
2018-07-06T15:09:09.097Z,21.20
2018-07-06T15:11:38.186Z,21.20
2018-07-06T15:14:07.378Z,21.10
2018-07-06T15:16:36.466Z,21.10
2018-07-06T15:19:06.382Z,21.00
2018-07-06T15:21:35.503Z,21.00
2018-07-06T15:24:04.894Z,21.10
2018-07-06T15:26:34.020Z,21.10
2018-07-06T15:29:03.227Z,21.00
2018-07-06T15:31:32.319Z,20.90
2018-07-06T15:34:01.435Z,20.80
2018-07-06T15:36:30.569Z,20.70
2018-07-06T15:38:59.681Z,20.70
2018-07-06T15:41:28.783Z,20.70
2018-07-06T15:43:57.922Z,20.70
2018-07-06T15:46:27.701Z,20.60
2018-07-06T15:48:56.835Z,20.60
2018-07-06T15:51:25.928Z,20.60
2018-07-06T15:53:55.149Z,20.60
2018-07-06T15:56:24.255Z,20.50
2018-07-06T15:58:53.758Z,20.50
2018-07-06T16:01:22.854Z,20.50
2018-07-06T16:03:51.951Z,20.50
2018-07-06T16:06:21.080Z,20.40
2018-07-06T16:08:50.175Z,20.40
2018-07-06T16:11:19.295Z,20.40
2018-07-06T16:16:17.518Z,20.30
2018-07-06T16:18:46.636Z,20.20
2018-07-06T16:21:15.824Z,20.10
2018-07-06T16:23:45.012Z,19.90
2018-07-06T16:26:14.138Z,19.80
2018-07-06T16:28:43.262Z,19.70
2018-07-06T16:31:12.420Z,19.50
2018-07-06T16:33:41.527Z,19.30
2018-07-06T16:36:10.646Z,19.30
2018-07-06T16:38:39.809Z,19.20
2018-07-06T16:41:08.992Z,19.20
2018-07-06T16:43:38.164Z,19.20
2018-07-06T16:46:07.464Z,19.00
2018-07-06T16:48:36.644Z,19.00
2018-07-06T16:51:05.790Z,19.00
2018-07-06T16:53:34.910Z,18.80
2018-07-06T16:56:04.060Z,18.60
2018-07-06T16:58:33.179Z,18.70
2018-07-06T17:03:31.172Z,18.50
2018-07-06T17:08:29.075Z,18.40
2018-07-06T17:10:58.224Z,18.30
2018-07-06T17:13:27.340Z,18.40
2018-07-06T17:15:56.460Z,18.40
2018-07-06T17:18:26.860Z,18.50
2018-07-06T17:20:56.004Z,18.50
2018-07-06T17:23:25.142Z,18.60
2018-07-06T17:25:54.292Z,18.50
2018-07-06T17:28:23.462Z,18.40
2018-07-06T17:30:52.608Z,18.40
2018-07-06T17:33:22.009Z,18.40
2018-07-06T17:35:51.216Z,18.40
2018-07-06T17:38:20.330Z,18.40
2018-07-06T17:40:49.588Z,18.30
2018-07-06T17:43:18.708Z,18.30
2018-07-06T17:45:48.093Z,18.40
2018-07-06T17:48:17.208Z,18.40
2018-07-06T17:50:46.384Z,18.40
2018-07-06T17:53:15.544Z,18.30
2018-07-06T17:55:44.668Z,18.30
2018-07-06T17:58:13.828Z,18.30
2018-07-06T18:00:42.934Z,18.30
2018-07-06T18:03:12.090Z,18.30
2018-07-06T18:05:41.178Z,18.40
2018-07-06T18:08:10.442Z,18.30
2018-07-06T18:10:39.585Z,18.30
2018-07-06T18:13:08.672Z,18.30
2018-07-06T18:15:37.944Z,18.30
2018-07-06T18:18:07.056Z,18.40
2018-07-06T18:20:36.151Z,18.40
2018-07-06T18:23:05.361Z,18.40
2018-07-06T18:25:34.410Z,18.50
2018-07-06T18:28:03.724Z,18.50
2018-07-06T18:30:32.821Z,18.50
2018-07-06T18:33:01.919Z,18.60
2018-07-06T18:35:31.165Z,18.60
2018-07-06T18:38:00.375Z,18.60
2018-07-06T18:40:29.526Z,18.50
2018-07-06T18:42:58.638Z,18.40
2018-07-06T18:45:27.745Z,18.50
2018-07-06T18:50:25.792Z,18.50
2018-07-06T18:52:54.924Z,18.30
2018-07-06T18:55:24.072Z,18.20
2018-07-06T18:57:53.204Z,18.30
2018-07-06T19:00:22.313Z,18.20
2018-07-06T19:02:51.442Z,18.10
2018-07-06T19:05:20.529Z,18.20
2018-07-06T19:07:49.791Z,18.00
2018-07-06T19:10:18.874Z,18.00
2018-07-06T19:12:47.970Z,18.00
2018-07-06T19:15:17.067Z,18.00
2018-07-06T19:17:46.287Z,18.00
2018-07-06T19:20:15.402Z,17.90
2018-07-06T19:22:44.551Z,17.90
2018-07-06T19:25:13.643Z,17.90
2018-07-06T19:27:42.751Z,17.80
2018-07-06T19:30:12.076Z,17.70
2018-07-06T19:32:41.446Z,17.70
2018-07-06T19:35:10.574Z,17.70
2018-07-06T19:37:39.699Z,17.70
2018-07-06T19:40:09.179Z,17.80
2018-07-06T19:42:38.320Z,17.70
2018-07-06T19:45:07.472Z,17.70
2018-07-06T19:47:36.574Z,17.80
2018-07-06T19:50:05.755Z,17.70
2018-07-06T19:52:34.840Z,17.70
2018-07-06T19:55:04.148Z,17.70
2018-07-06T19:57:33.389Z,17.70
2018-07-06T20:00:02.492Z,17.70
2018-07-06T20:02:31.632Z,17.60
2018-07-06T20:05:00.754Z,17.50
2018-07-06T20:07:29.911Z,17.40
2018-07-06T20:09:59.067Z,17.30
2018-07-06T20:12:28.197Z,17.30
2018-07-06T20:14:58.526Z,17.30
2018-07-06T20:17:27.674Z,17.30
2018-07-06T20:19:56.935Z,17.30
2018-07-06T20:22:26.069Z,17.30
2018-07-06T20:24:55.207Z,17.20
2018-07-06T20:30:21.595Z,17.40
2018-07-06T20:32:50.733Z,17.50
2018-07-06T20:35:19.852Z,17.30
2018-07-06T20:37:48.950Z,17.30
2018-07-06T20:40:18.095Z,17.20
2018-07-06T20:42:47.335Z,17.40
2018-07-06T20:45:16.463Z,17.50
2018-07-06T20:47:45.724Z,17.50
2018-07-06T20:50:14.848Z,17.50
2018-07-06T20:52:43.961Z,17.30
2018-07-06T20:55:13.123Z,17.50
2018-07-06T20:57:42.267Z,17.50
2018-07-06T21:00:11.408Z,17.60
2018-07-06T21:02:40.531Z,17.60
2018-07-06T21:05:09.669Z,17.50
2018-07-06T21:07:38.983Z,17.50
2018-07-06T21:10:08.122Z,17.60
2018-07-06T21:12:37.219Z,17.50
2018-07-06T21:15:06.371Z,17.40
2018-07-06T21:17:35.772Z,17.40
2018-07-06T21:20:04.947Z,17.50
2018-07-06T21:22:34.067Z,17.60
2018-07-06T21:25:03.172Z,17.70
2018-07-06T21:30:01.214Z,17.60
2018-07-06T21:32:30.304Z,17.50
2018-07-06T21:34:59.395Z,17.60
2018-07-06T21:37:28.531Z,17.50
2018-07-06T21:39:57.642Z,17.50
2018-07-06T21:42:26.775Z,17.60
2018-07-06T21:44:55.870Z,17.50
2018-07-06T21:47:25.012Z,17.50
2018-07-06T21:49:54.123Z,17.40
2018-07-06T21:52:23.250Z,17.40
2018-07-06T21:54:52.375Z,17.40
2018-07-06T21:57:21.516Z,17.40
2018-07-06T21:59:50.611Z,17.30
2018-07-06T22:02:19.753Z,17.20
2018-07-06T22:04:48.864Z,17.30
2018-07-06T22:07:18.008Z,17.30
2018-07-06T22:09:47.094Z,17.40
2018-07-06T22:12:16.237Z,17.40
2018-07-06T22:14:45.367Z,17.40
2018-07-06T22:17:14.508Z,17.50
2018-07-06T22:19:43.640Z,17.40
2018-07-06T22:22:12.770Z,17.30
2018-07-06T22:24:41.896Z,17.30
2018-07-06T22:27:11.014Z,17.40
2018-07-06T22:29:40.126Z,17.50
2018-07-06T22:32:09.249Z,17.50
2018-07-06T22:34:38.347Z,17.60
2018-07-06T22:37:07.527Z,17.60
2018-07-06T22:39:36.660Z,17.60
2018-07-06T22:42:05.987Z,17.50
2018-07-06T22:44:35.124Z,17.50
2018-07-06T22:47:04.331Z,17.50
2018-07-06T22:49:33.434Z,17.50
2018-07-06T22:52:02.559Z,17.30
2018-07-06T22:54:31.712Z,17.20
2018-07-06T22:57:00.846Z,17.40
2018-07-06T22:59:29.956Z,17.40
2018-07-06T23:01:59.110Z,17.40
2018-07-06T23:04:28.230Z,17.40
2018-07-06T23:06:57.378Z,17.30
2018-07-06T23:09:26.503Z,17.20
2018-07-06T23:11:55.631Z,17.20
2018-07-06T23:14:24.740Z,17.20
2018-07-06T23:16:53.891Z,17.30
2018-07-06T23:19:22.979Z,17.30
2018-07-06T23:21:52.100Z,17.40
2018-07-06T23:24:21.191Z,17.40
2018-07-06T23:26:50.450Z,17.30
2018-07-06T23:29:19.547Z,17.40
2018-07-06T23:31:48.676Z,17.30
2018-07-06T23:34:17.776Z,17.20
2018-07-06T23:36:46.936Z,17.20
2018-07-06T23:39:16.051Z,17.30
2018-07-06T23:41:45.142Z,17.40
2018-07-06T23:44:14.255Z,17.20
2018-07-06T23:46:43.379Z,17.30
2018-07-06T23:49:12.559Z,17.30
2018-07-06T23:51:41.692Z,17.10
2018-07-06T23:54:10.859Z,17.20
2018-07-06T23:56:40.002Z,17.00
2018-07-06T23:59:09.114Z,17.00
